Latest Coastal Weather Observations for Marion Reef

IDQ60701

Issued at 4:35 pm EST Thursday 24 July 2014 (issued every 10 minutes, with the page automatically refreshed every 10 minutes)

About coastal observations | Map of coastal stations | Coastal observations for QLD | Marine services | Other Formats
Station Details ID: 200704 Name: MARION REEF Lat: -19.10 Lon: 152.39 Height: 2.0 m
Data from the previous 72 hours. | See also: Recent months for locations in Queensland
Date/Time
EST
Temp

°C
Wind Pressure Rain
since 9am
mm
Weather Cloud Vis
km
Sea
Height
m
Swell
Dir
 
Speed
knots
Gust
knots
hPa Trend Height
m
Period
s
Dir
24/04:30pm 22.8 E 14 17 1017.1 - - - - - - - - -
24/04:00pm 22.8 E 14 16 1016.9 - - - - - - - - -
24/03:30pm 22.7 E 15 17 1016.7 - - - - - - - - -
24/03:00pm 23.0 E 16 18 1016.5 - - - - - - - - -
24/02:30pm 22.9 E 16 19 1016.6 - - - - - - - - -
24/02:00pm 22.7 E 17 19 1016.8 - - - - - - - - -
24/01:30pm 22.8 E 17 19 1017.1 - - - - - - - - -
24/01:00pm 22.8 E 17 19 1017.3 - - - - - - - - -
24/12:30pm 22.7 E 17 20 1017.9 - - - - - - - - -
24/12:00pm 22.8 E 18 21 1018.2 - - - - - - - - -
24/11:30am 22.8 E 18 21 1018.5 - - - - - - - - -
24/11:00am 22.7 ESE 18 21 1018.7 - - - - - - - - -
24/10:30am 23.0 E 18 23 1019.1 - - - - - - - - -
24/10:00am 22.8 ESE 18 22 1019.2 - - - - - - - - -
24/09:30am 22.9 ESE 18 20 1019.4 - - - - - - - - -
24/09:00am 22.9 ESE 18 20 1019.2 - - - - - - - - -
24/08:30am 22.9 ESE 17 22 1019.1 - - - - - - - - -
24/08:00am 22.8 E 18 21 1018.6 - - - - - - - - -
24/07:30am 22.7 E 18 21 1018.2 - - - - - - - - -
24/07:00am 22.7 ESE 18 20 1017.9 - - - - - - - - -
24/06:30am 22.6 ESE 18 22 1017.6 - - - - - - - - -
24/06:00am 22.6 ESE 19 21 1017.4 - - - - - - - - -
24/05:30am 22.6 ESE 18 21 1017.2 - - - - - - - - -
24/05:00am 21.1 ESE 19 22 1017.0 - - - - - - - - -
24/04:30am 20.7 ENE 18 22 1016.9 - - - - - - - - -
24/04:00am 21.5 E 14 16 1016.5 - - - - - - - - -
24/03:30am 21.9 ENE 16 22 1016.5 - - - - - - - - -
24/03:18am 21.9 E 20 23 1016.5 - - - - - - - - -
24/03:00am 22.2 ESE 19 22 1016.6 - - - - - - - - -
24/02:30am 22.2 E 18 21 1016.7 - - - - - - - - -
24/02:00am 21.6 E 19 21 1016.8 - - - - - - - - -
24/01:30am 21.5 E 18 22 1017.1 - - - - - - - - -
24/01:00am 19.7 E 17 25 1017.3 - - - - - - - - -
24/12:30am 19.8 E 19 23 1017.7 - - - - - - - - -
24/12:00am 21.1 ESE 15 21 1017.8 - - - - - - - - -
 
Date/Time
EST
Temp

°C
Wind Pressure Rain
since 9am
mm
Weather Cloud Vis
km
Sea
Height
m
Swell
Dir
 
Speed
knots
Gust
knots
hPa Trend Height
m
Period
s
Dir
23/11:30pm 22.0 E 18 21 1017.7 - - - - - - - - -
23/11:00pm 21.5 E 17 23 1017.7 - - - - - - - - -
23/10:42pm 21.9 E 24 29 1017.9 - - - - - - - - -
23/10:30pm 21.2 E 11 15 1017.7 - - - - - - - - -
23/10:00pm 21.2 E 24 28 1017.8 - - - - - - - - -
23/09:30pm 22.5 E 17 20 1017.7 - - - - - - - - -
23/09:00pm 22.1 E 21 23 1017.7 - - - - - - - - -
23/08:30pm 22.2 E 20 23 1017.7 - - - - - - - - -
23/08:00pm 22.6 ESE 19 23 1017.2 - - - - - - - - -
23/07:30pm 22.2 ESE 19 23 1017.2 - - - - - - - - -
23/07:00pm 21.9 ESE 18 22 1016.8 - - - - - - - - -
23/06:30pm 21.4 ESE 17 20 1016.4 - - - - - - - - -
23/06:00pm 21.2 ESE 22 26 1016.0 - - - - - - - - -
23/05:30pm 21.8 ESE 19 22 1015.9 - - - - - - - - -
23/05:00pm 21.8 ESE 20 24 1015.7 - - - - - - - - -
23/04:30pm 21.7 SE 20 22 1015.5 - - - - - - - - -
23/04:00pm 21.6 SSE 16 21 1015.3 - - - - - - - - -
23/03:30pm 21.8 SE 12 17 1015.2 - - - - - - - - -
23/03:00pm 21.8 SE 15 19 1015.1 - - - - - - - - -
23/02:30pm 22.4 SSE 11 12 1015.2 - - - - - - - - -
23/02:00pm 22.1 SSE 12 14 1015.1 - - - - - - - - -
23/01:30pm 22.3 SE 8 11 1015.4 - - - - - - - - -
23/01:00pm 22.5 SSE 9 12 1015.5 - - - - - - - - -
23/12:30pm 22.4 SSE 7 12 1016.1 - - - - - - - - -
23/12:00pm 22.2 SSE 8 11 1016.5 - - - - - - - - -
23/11:30am 22.3 SE 7 9 1016.9 - - - - - - - - -
23/11:00am 22.1 SE 6 8 1017.2 - - - - - - - - -
23/10:30am 22.2 S 5 9 1017.8 - - - - - - - - -
23/10:00am 22.1 SSE 6 7 1018.0 - - - - - - - - -
23/09:30am 22.1 SSE 6 8 1018.4 - - - - - - - - -
23/09:00am 22.1 SSE 5 7 1018.3 - - - - - - - - -
23/08:30am 22.2 SSE 4 6 1018.1 - - - - - - - - -
23/08:00am 21.8 SSE 5 8 1017.8 - - - - - - - - -
23/07:30am 22.1 SE 5 7 1017.5 - - - - - - - - -
23/07:00am 21.9 SE 6 7 1017.1 - - - - - - - - -
23/06:30am 21.6 SSE 6 7 1016.8 - - - - - - - - -
23/06:00am 21.6 SSE 6 8 1016.5 - - - - - - - - -
23/05:30am 21.7 SSE 5 8 1016.3 - - - - - - - - -
23/05:00am 21.7 SSE 7 7 1016.0 - - - - - - - - -
23/04:30am 21.6 SSE 7 9 1015.8 - - - - - - - - -
23/04:00am 21.6 SE 6 8 1015.6 - - - - - - - - -
23/03:30am 21.8 SE 6 8 1015.8 - - - - - - - - -
23/03:00am 21.7 SSE 6 8 1015.9 - - - - - - - - -
23/02:30am 21.7 SSE 7 8 1016.3 - - - - - - - - -
23/02:00am 21.8 SSE 7 11 1016.4 - - - - - - - - -
23/01:30am 21.9 S 7 8 1016.9 - - - - - - - - -
23/01:00am 22.0 SSE 9 11 1017.1 - - - - - - - - -
23/12:30am 22.0 SE 8 10 1017.5 - - - - - - - - -
23/12:00am 22.1 SSE 8 11 1017.5 - - - - - - - - -
 
Date/Time
EST
Temp

°C
Wind Pressure Rain
since 9am
mm
Weather Cloud Vis
km
Sea
Height
m
Swell
Dir
 
Speed
knots
Gust
knots
hPa Trend Height
m
Period
s
Dir
22/11:30pm 22.0 S 8 11 1017.8 - - - - - - - - -
22/11:00pm 22.1 S 8 11 1017.8 - - - - - - - - -
22/10:30pm 22.2 SSE 9 13 1018.1 - - - - - - - - -
22/10:00pm 22.3 S 11 13 1018.1 - - - - - - - - -
22/09:30pm 22.1 SSE 11 14 1018.2 - - - - - - - - -
22/09:00pm 22.3 SSE 12 14 1018.1 - - - - - - - - -
22/08:30pm 22.3 S 12 15 1017.9 - - - - - - - - -
22/08:00pm 22.1 SSE 13 16 1017.8 - - - - - - - - -
22/07:30pm 22.2 SSE 14 17 1017.7 - - - - - - - - -
22/07:00pm 22.4 SSE 15 17 1017.3 - - - - - - - - -
22/06:30pm 22.2 SSE 16 19 1017.0 - - - - - - - - -
22/06:00pm 22.5 SSE 15 18 1016.5 - - - - - - - - -
22/05:30pm 22.3 SSE 13 16 1016.2 - - - - - - - - -
22/05:00pm 22.3 SSE 12 14 1016.0 - - - - - - - - -
22/04:30pm 22.4 SE 11 13 1015.9 - - - - - - - - -
22/04:00pm 22.5 SE 11 13 1015.7 - - - - - - - - -
22/03:30pm 22.5 SE 11 13 1015.7 - - - - - - - - -
22/03:00pm 22.4 SE 11 15 1015.5 - - - - - - - - -
22/02:30pm 22.4 SE 10 12 1015.7 - - - - - - - - -
22/02:00pm 22.6 SE 9 13 1015.7 - - - - - - - - -
22/01:30pm 22.7 SE 10 13 1016.1 - - - - - - - - -
22/01:00pm 22.4 SE 11 12 1016.2 - - - - - - - - -
22/12:30pm 22.5 SE 11 14 1016.8 - - - - - - - - -
22/12:00pm 22.4 SE 10 13 1017.2 - - - - - - - - -
22/11:30am 22.5 SE 11 13 1017.9 - - - - - - - - -
22/11:00am 22.6 SE 11 14 1018.1 - - - - - - - - -
22/10:30am 22.6 SE 11 14 1018.6 - - - - - - - - -
22/10:00am 22.5 SE 12 15 1018.8 - - - - - - - - -
22/09:30am 22.5 SE 12 15 1019.2 - - - - - - - - -
22/09:00am 22.5 SE 13 15 1019.3 - - - - - - - - -
22/08:30am 22.5 SE 13 15 1019.2 - - - - - - - - -
22/08:00am 22.3 SE 14 16 1018.8 - - - - - - - - -
22/07:30am 22.5 SE 12 15 1018.6 - - - - - - - - -
22/07:00am 22.3 SE 12 15 1018.3 - - - - - - - - -
22/06:30am 22.4 ESE 12 14 1017.8 - - - - - - - - -
22/06:00am 22.3 ESE 12 15 1017.5 - - - - - - - - -
22/05:30am 22.1 SE 11 14 1017.3 - - - - - - - - -
22/05:00am 21.6 SSE 8 11 1017.0 - - - - - - - - -
22/04:30am 20.6 S 13 16 1017.2 - - - - - - - - -
22/04:00am 20.5 SSE 20 23 1017.1 - - - - - - - - -
22/03:30am 22.1 ESE 12 14 1017.3 - - - - - - - - -
22/03:00am 22.0 ESE 13 15 1017.2 - - - - - - - - -
22/02:30am 22.1 ESE 13 15 1017.5 - - - - - - - - -
22/02:00am 22.0 ESE 12 14 1017.5 - - - - - - - - -
22/01:30am 22.0 ESE 12 16 1017.8 - - - - - - - - -
22/01:00am 21.4 E 6 9 1017.8 - - - - - - - - -
22/12:30am 21.3 E 16 18 1018.3 - - - - - - - - -
22/12:00am 21.7 E 16 19 1018.2 - - - - - - - - -
 
Date/Time
EST
Temp

°C
Wind Pressure Rain
since 9am
mm
Weather Cloud Vis
km
Sea
Height
m
Swell
Dir
 
Speed
knots
Gust
knots
hPa Trend Height
m
Period
s
Dir
21/11:30pm 22.1 ESE 16 22 1018.6 - - - - - - - - -
21/11:00pm 22.4 E 13 15 1018.6 - - - - - - - - -
21/10:30pm 22.3 ESE 12 15 1018.8 - - - - - - - - -
21/10:00pm 22.2 ESE 13 15 1018.8 - - - - - - - - -
21/09:30pm 22.1 ESE 14 16 1018.9 - - - - - - - - -
21/09:00pm 22.1 ESE 12 16 1018.7 - - - - - - - - -
21/08:30pm 22.2 E 10 12 1018.7 - - - - - - - - -
21/08:00pm 21.8 E 13 15 1018.6 - - - - - - - - -
21/07:30pm 22.1 ESE 12 15 1018.6 - - - - - - - - -
21/07:00pm 22.1 ESE 11 13 1018.1 - - - - - - - - -
21/06:30pm 22.0 ESE 13 17 1017.9 - - - - - - - - -
21/06:00pm 22.3 ESE 12 15 1017.5 - - - - - - - - -
21/05:30pm 22.4 ESE 9 13 1017.3 - - - - - - - - -
21/05:00pm 22.4 ESE 8 11 1016.9 - - - - - - - - -

Other Formats:

Comma delimited format used in spreadsheet applications
http://www.bom.gov.au/fwo/IDQ60701/IDQ60701.94298.axf

JavaScript Object Notation format (JSON) in row-major order
http://www.bom.gov.au/fwo/IDQ60701/IDQ60701.94298.json